sensor_id;sensor_type;location;lat;lon;timestamp;pressure;altitude;pressure_sealevel;temperature;humidity
76990;BME280;65924;47.250;11.332;2023-04-08T00:00:03;94869.95;;;8.68;65.63
76990;BME280;65924;47.250;11.332;2023-04-08T00:00:48;94869.05;;;8.69;65.83
76990;BME280;65924;47.250;11.332;2023-04-08T00:01:27;94867.69;;;8.69;65.79
76990;BME280;65924;47.250;11.332;2023-04-08T00:02:06;94868.37;;;8.69;65.96
76990;BME280;65924;47.250;11.332;2023-04-08T00:02:44;94864.43;;;8.70;65.76
76990;BME280;65924;47.250;11.332;2023-04-08T00:03:23;94865.22;;;8.71;65.60
76990;BME280;65924;47.250;11.332;2023-04-08T00:04:01;94864.33;;;8.72;65.60
76990;BME280;65924;47.250;11.332;2023-04-08T00:04:40;94863.95;;;8.72;65.34
76990;BME280;65924;47.250;11.332;2023-04-08T00:05:18;94863.23;;;8.73;65.35
76990;BME280;65924;47.250;11.332;2023-04-08T00:05:57;94864.70;;;8.74;65.26
76990;BME280;65924;47.250;11.332;2023-04-08T00:06:38;94862.68;;;8.74;65.18
76990;BME280;65924;47.250;11.332;2023-04-08T00:07:16;94862.52;;;8.74;65.29
76990;BME280;65924;47.250;11.332;2023-04-08T00:07:55;94862.36;;;8.74;65.31
76990;BME280;65924;47.250;11.332;2023-04-08T00:08:33;94857.77;;;8.74;65.42
76990;BME280;65924;47.250;11.332;2023-04-08T00:09:12;94859.16;;;8.73;65.31
76990;BME280;65924;47.250;11.332;2023-04-08T00:09:50;94858.13;;;8.73;65.31
76990;BME280;65924;47.250;11.332;2023-04-08T00:10:29;94859.19;;;8.73;65.43
76990;BME280;65924;47.250;11.332;2023-04-08T00:11:07;94859.89;;;8.72;65.48
76990;BME280;65924;47.250;11.332;2023-04-08T00:11:45;94857.02;;;8.72;65.38
76990;BME280;65924;47.250;11.332;2023-04-08T00:12:24;94859.61;;;8.71;65.41
76990;BME280;65924;47.250;11.332;2023-04-08T00:13:03;94857.29;;;8.70;65.47
76990;BME280;65924;47.250;11.332;2023-04-08T00:13:41;94859.05;;;8.69;65.54
76990;BME280;65924;47.250;11.332;2023-04-08T00:14:19;94860.27;;;8.68;65.59
76990;BME280;65924;47.250;11.332;2023-04-08T00:14:58;94861.32;;;8.68;65.49
76990;BME280;65924;47.250;11.332;2023-04-08T00:15:37;94859.71;;;8.67;65.52
76990;BME280;65924;47.250;11.332;2023-04-08T00:16:15;94863.02;;;8.65;65.49
76990;BME280;65924;47.250;11.332;2023-04-08T00:16:54;94863.06;;;8.64;65.54
76990;BME280;65924;47.250;11.332;2023-04-08T00:17:33;94859.23;;;8.63;65.52
76990;BME280;65924;47.250;11.332;2023-04-08T00:18:13;94860.45;;;8.62;65.63
76990;BME280;65924;47.250;11.332;2023-04-08T00:18:52;94861.16;;;8.62;65.59
76990;BME280;65924;47.250;11.332;2023-04-08T00:19:31;94862.90;;;8.61;65.63
76990;BME280;65924;47.250;11.332;2023-04-08T00:20:10;94859.11;;;8.58;65.56
76990;BME280;65924;47.250;11.332;2023-04-08T00:20:49;94860.02;;;8.58;65.57
76990;BME280;65924;47.250;11.332;2023-04-08T00:21:28;94859.87;;;8.57;65.61
76990;BME280;65924;47.250;11.332;2023-04-08T00:22:06;94860.60;;;8.56;65.45
76990;BME280;65924;47.250;11.332;2023-04-08T00:22:45;94860.23;;;8.56;65.45
76990;BME280;65924;47.250;11.332;2023-04-08T00:23:24;94857.00;;;8.57;65.66
76990;BME280;65924;47.250;11.332;2023-04-08T00:24:02;94858.70;;;8.57;65.57
76990;BME280;65924;47.250;11.332;2023-04-08T00:24:41;94855.79;;;8.57;65.56
76990;BME280;65924;47.250;11.332;2023-04-08T00:25:19;94858.02;;;8.57;65.63
76990;BME280;65924;47.250;11.332;2023-04-08T00:25:58;94853.14;;;8.56;65.74
76990;BME280;65924;47.250;11.332;2023-04-08T00:26:36;94854.30;;;8.56;65.77
76990;BME280;65924;47.250;11.332;2023-04-08T00:27:15;94856.36;;;8.56;65.97
76990;BME280;65924;47.250;11.332;2023-04-08T00:27:53;94856.98;;;8.57;65.92
76990;BME280;65924;47.250;11.332;2023-04-08T00:28:32;94859.52;;;8.57;66.12
76990;BME280;65924;47.250;11.332;2023-04-08T00:29:10;94857.98;;;8.58;66.20
76990;BME280;65924;47.250;11.332;2023-04-08T00:29:49;94858.44;;;8.58;65.99
76990;BME280;65924;47.250;11.332;2023-04-08T00:30:27;94857.61;;;8.58;66.10
76990;BME280;65924;47.250;11.332;2023-04-08T00:31:06;94859.27;;;8.59;66.04
76990;BME280;65924;47.250;11.332;2023-04-08T00:31:44;94858.30;;;8.58;66.10
76990;BME280;65924;47.250;11.332;2023-04-08T00:32:23;94850.73;;;8.54;66.04
76990;BME280;65924;47.250;11.332;2023-04-08T00:33:04;94856.23;;;8.55;65.75
76990;BME280;65924;47.250;11.332;2023-04-08T00:33:43;94855.61;;;8.54;65.89
76990;BME280;65924;47.250;11.332;2023-04-08T00:34:22;94853.95;;;8.54;65.99
76990;BME280;65924;47.250;11.332;2023-04-08T00:35:01;94850.76;;;8.53;66.04
76990;BME280;65924;47.250;11.332;2023-04-08T00:35:40;94852.83;;;8.53;66.05
76990;BME280;65924;47.250;11.332;2023-04-08T00:36:19;94849.48;;;8.52;66.12
76990;BME280;65924;47.250;11.332;2023-04-08T00:36:58;94849.39;;;8.51;66.07
76990;BME280;65924;47.250;11.332;2023-04-08T00:37:36;94852.38;;;8.49;66.08
76990;BME280;65924;47.250;11.332;2023-04-08T00:38:15;94850.39;;;8.48;66.12
76990;BME280;65924;47.250;11.332;2023-04-08T00:38:53;94849.89;;;8.47;66.14
76990;BME280;65924;47.250;11.332;2023-04-08T00:39:32;94852.45;;;8.47;66.16
76990;BME280;65924;47.250;11.332;2023-04-08T00:40:12;94850.26;;;8.47;66.25
76990;BME280;65924;47.250;11.332;2023-04-08T00:40:50;94851.23;;;8.48;66.28
76990;BME280;65924;47.250;11.332;2023-04-08T00:41:29;94853.52;;;8.49;66.28
76990;BME280;65924;47.250;11.332;2023-04-08T00:42:08;94854.66;;;8.50;66.17
76990;BME280;65924;47.250;11.332;2023-04-08T00:42:47;94857.35;;;8.50;66.20
76990;BME280;65924;47.250;11.332;2023-04-08T00:43:25;94855.65;;;8.51;66.06
76990;BME280;65924;47.250;11.332;2023-04-08T00:44:04;94857.19;;;8.50;66.14
76990;BME280;65924;47.250;11.332;2023-04-08T00:44:43;94859.38;;;8.51;66.27
76990;BME280;65924;47.250;11.332;2023-04-08T00:45:22;94861.39;;;8.51;66.17
76990;BME280;65924;47.250;11.332;2023-04-08T00:46:00;94859.81;;;8.52;66.10
76990;BME280;65924;47.250;11.332;2023-04-08T00:46:39;94859.46;;;8.52;66.19
76990;BME280;65924;47.250;11.332;2023-04-08T00:47:18;94862.32;;;8.53;66.23
76990;BME280;65924;47.250;11.332;2023-04-08T00:47:56;94861.81;;;8.53;66.25
76990;BME280;65924;47.250;11.332;2023-04-08T00:48:35;94861.88;;;8.51;66.38
76990;BME280;65924;47.250;11.332;2023-04-08T00:49:13;94860.93;;;8.50;66.41
76990;BME280;65924;47.250;11.332;2023-04-08T00:49:52;94858.95;;;8.49;66.37
76990;BME280;65924;47.250;11.332;2023-04-08T00:50:30;94860.23;;;8.47;66.31
76990;BME280;65924;47.250;11.332;2023-04-08T00:51:09;94855.58;;;8.46;66.35
76990;BME280;65924;47.250;11.332;2023-04-08T00:51:48;94860.85;;;8.45;66.44
76990;BME280;65924;47.250;11.332;2023-04-08T00:52:27;94862.13;;;8.44;66.48
76990;BME280;65924;47.250;11.332;2023-04-08T00:53:05;94862.68;;;8.43;66.53
76990;BME280;65924;47.250;11.332;2023-04-08T00:53:44;94863.73;;;8.42;66.64
76990;BME280;65924;47.250;11.332;2023-04-08T00:54:23;94860.13;;;8.43;66.83
76990;BME280;65924;47.250;11.332;2023-04-08T00:55:02;94862.30;;;8.44;67.07
76990;BME280;65924;47.250;11.332;2023-04-08T00:55:40;94862.33;;;8.43;67.12
76990;BME280;65924;47.250;11.332;2023-04-08T00:56:19;94860.36;;;8.41;67.27
76990;BME280;65924;47.250;11.332;2023-04-08T00:56:59;94861.46;;;8.40;67.17
76990;BME280;65924;47.250;11.332;2023-04-08T00:57:38;94863.48;;;8.40;67.23
76990;BME280;65924;47.250;11.332;2023-04-08T00:58:17;94863.46;;;8.40;67.40
76990;BME280;65924;47.250;11.332;2023-04-08T00:58:56;94861.73;;;8.41;67.53
76990;BME280;65924;47.250;11.332;2023-04-08T00:59:34;94862.37;;;8.42;67.70
76990;BME280;65924;47.250;11.332;2023-04-08T01:00:14;94860.46;;;8.43;67.72
76990;BME280;65924;47.250;11.332;2023-04-08T01:00:59;94866.23;;;8.43;67.83
76990;BME280;65924;47.250;11.332;2023-04-08T01:01:52;94867.44;;;8.42;67.97
76990;BME280;65924;47.250;11.332;2023-04-08T01:02:44;94864.95;;;8.41;68.17
76990;BME280;65924;47.250;11.332;2023-04-08T01:03:38;94867.39;;;8.40;68.39
76990;BME280;65924;47.250;11.332;2023-04-08T01:04:32;94866.02;;;8.37;68.32
76990;BME280;65924;47.250;11.332;2023-04-08T01:08:04;94859.08;;;8.34;68.72
76990;BME280;65924;47.250;11.332;2023-04-08T01:08:44;94859.13;;;8.33;68.72
76990;BME280;65924;47.250;11.332;2023-04-08T01:09:27;94859.12;;;8.33;69.03
76990;BME280;65924;47.250;11.332;2023-04-08T01:10:14;94856.34;;;8.32;69.23
76990;BME280;65924;47.250;11.332;2023-04-08T01:10:58;94857.38;;;8.31;69.09
76990;BME280;65924;47.250;11.332;2023-04-08T01:11:42;94858.20;;;8.32;68.81
76990;BME280;65924;47.250;11.332;2023-04-08T01:12:25;94856.60;;;8.33;69.05
76990;BME280;65924;47.250;11.332;2023-04-08T01:13:07;94858.61;;;8.33;68.91
76990;BME280;65924;47.250;11.332;2023-04-08T01:13:47;94857.39;;;8.34;68.97
76990;BME280;65924;47.250;11.332;2023-04-08T01:14:30;94857.18;;;8.35;68.97
76990;BME280;65924;47.250;11.332;2023-04-08T01:15:10;94857.60;;;8.36;68.81
76990;BME280;65924;47.250;11.332;2023-04-08T01:15:49;94861.48;;;8.36;69.11
76990;BME280;65924;47.250;11.332;2023-04-08T01:16:28;94860.33;;;8.36;69.01
76990;BME280;65924;47.250;11.332;2023-04-08T01:17:07;94859.30;;;8.36;69.16
76990;BME280;65924;47.250;11.332;2023-04-08T01:17:49;94860.63;;;8.37;69.24
76990;BME280;65924;47.250;11.332;2023-04-08T01:18:31;94859.45;;;8.36;69.52
76990;BME280;65924;47.250;11.332;2023-04-08T01:19:21;94860.68;;;8.35;69.05
76990;BME280;65924;47.250;11.332;2023-04-08T01:20:06;94858.77;;;8.36;69.23
76990;BME280;65924;47.250;11.332;2023-04-08T01:20:46;94860.93;;;8.37;69.16
76990;BME280;65924;47.250;11.332;2023-04-08T01:21:27;94859.84;;;8.38;69.17
76990;BME280;65924;47.250;11.332;2023-04-08T01:22:18;94861.77;;;8.40;69.25
76990;BME280;65924;47.250;11.332;2023-04-08T01:23:25;94862.44;;;8.40;69.07
76990;BME280;65924;47.250;11.332;2023-04-08T01:24:27;94863.66;;;8.40;69.23
76990;BME280;65924;47.250;11.332;2023-04-08T01:25:17;94863.91;;;8.38;69.14
76990;BME280;65924;47.250;11.332;2023-04-08T01:25:57;94864.79;;;8.38;69.30
76990;BME280;65924;47.250;11.332;2023-04-08T01:26:36;94863.98;;;8.37;69.32
76990;BME280;65924;47.250;11.332;2023-04-08T01:27:15;94863.52;;;8.36;69.36
76990;BME280;65924;47.250;11.332;2023-04-08T01:27:55;94859.91;;;8.34;69.43
76990;BME280;65924;47.250;11.332;2023-04-08T01:28:35;94862.72;;;8.36;69.40
76990;BME280;65924;47.250;11.332;2023-04-08T01:29:15;94861.78;;;8.34;69.57
76990;BME280;65924;47.250;11.332;2023-04-08T01:29:54;94857.95;;;8.33;69.66
76990;BME280;65924;47.250;11.332;2023-04-08T01:30:34;94860.20;;;8.32;69.51
76990;BME280;65924;47.250;11.332;2023-04-08T01:31:15;94858.84;;;8.32;69.69
76990;BME280;65924;47.250;11.332;2023-04-08T01:31:56;94859.94;;;8.34;69.70
76990;BME280;65924;47.250;11.332;2023-04-08T01:32:38;94865.77;;;8.36;69.77
76990;BME280;65924;47.250;11.332;2023-04-08T01:33:18;94863.64;;;8.34;69.66
76990;BME280;65924;47.250;11.332;2023-04-08T01:34:00;94865.23;;;8.33;69.69
76990;BME280;65924;47.250;11.332;2023-04-08T01:34:42;94866.05;;;8.33;69.82
76990;BME280;65924;47.250;11.332;2023-04-08T01:35:22;94868.91;;;8.34;69.95
76990;BME280;65924;47.250;11.332;2023-04-08T01:36:02;94867.84;;;8.35;69.77
76990;BME280;65924;47.250;11.332;2023-04-08T01:36:43;94866.45;;;8.35;70.00
76990;BME280;65924;47.250;11.332;2023-04-08T01:37:26;94869.30;;;8.36;70.02
76990;BME280;65924;47.250;11.332;2023-04-08T01:38:06;94866.88;;;8.37;69.80
76990;BME280;65924;47.250;11.332;2023-04-08T01:38:47;94867.67;;;8.37;69.68
76990;BME280;65924;47.250;11.332;2023-04-08T01:39:27;94866.13;;;8.38;69.86
76990;BME280;65924;47.250;11.332;2023-04-08T01:40:08;94866.11;;;8.38;69.86
76990;BME280;65924;47.250;11.332;2023-04-08T01:40:50;94866.28;;;8.38;69.98
76990;BME280;65924;47.250;11.332;2023-04-08T01:41:29;94863.38;;;8.39;69.75
76990;BME280;65924;47.250;11.332;2023-04-08T01:42:10;94864.55;;;8.39;69.73
76990;BME280;65924;47.250;11.332;2023-04-08T01:42:53;94865.40;;;8.39;69.82
76990;BME280;65924;47.250;11.332;2023-04-08T01:43:34;94864.14;;;8.37;69.65
76990;BME280;65924;47.250;11.332;2023-04-08T01:44:13;94862.81;;;8.37;69.87
76990;BME280;65924;47.250;11.332;2023-04-08T01:44:55;94863.65;;;8.37;69.52
76990;BME280;65924;47.250;11.332;2023-04-08T01:45:35;94860.35;;;8.35;69.42
76990;BME280;65924;47.250;11.332;2023-04-08T01:46:14;94863.73;;;8.38;69.30
76990;BME280;65924;47.250;11.332;2023-04-08T01:46:53;94862.18;;;8.39;69.40
76990;BME280;65924;47.250;11.332;2023-04-08T01:47:35;94864.25;;;8.38;69.30
76990;BME280;65924;47.250;11.332;2023-04-08T01:48:15;94863.27;;;8.38;69.32
76990;BME280;65924;47.250;11.332;2023-04-08T01:48:54;94864.27;;;8.38;69.38
76990;BME280;65924;47.250;11.332;2023-04-08T01:49:34;94862.88;;;8.39;69.48
76990;BME280;65924;47.250;11.332;2023-04-08T01:50:14;94862.38;;;8.38;69.41
76990;BME280;65924;47.250;11.332;2023-04-08T01:50:54;94862.05;;;8.38;69.39
76990;BME280;65924;47.250;11.332;2023-04-08T01:51:36;94855.15;;;8.34;69.46
76990;BME280;65924;47.250;11.332;2023-04-08T01:52:17;94862.63;;;8.37;69.42
76990;BME280;65924;47.250;11.332;2023-04-08T01:52:58;94862.05;;;8.35;69.36
76990;BME280;65924;47.250;11.332;2023-04-08T01:53:37;94864.81;;;8.34;69.37
76990;BME280;65924;47.250;11.332;2023-04-08T01:54:16;94866.21;;;8.34;69.34
76990;BME280;65924;47.250;11.332;2023-04-08T01:54:55;94867.92;;;8.33;69.45
76990;BME280;65924;47.250;11.332;2023-04-08T01:55:35;94870.84;;;8.32;69.51
76990;BME280;65924;47.250;11.332;2023-04-08T01:56:14;94870.11;;;8.30;69.65
76990;BME280;65924;47.250;11.332;2023-04-08T01:56:54;94872.04;;;8.29;69.66
76990;BME280;65924;47.250;11.332;2023-04-08T01:57:36;94874.98;;;8.28;69.66
76990;BME280;65924;47.250;11.332;2023-04-08T01:58:18;94872.44;;;8.28;69.69
76990;BME280;65924;47.250;11.332;2023-04-08T01:58:59;94872.02;;;8.30;69.53
76990;BME280;65924;47.250;11.332;2023-04-08T01:59:39;94872.84;;;8.30;69.59
76990;BME280;65924;47.250;11.332;2023-04-08T02:00:22;94869.23;;;8.31;69.67
76990;BME280;65924;47.250;11.332;2023-04-08T02:01:05;94871.38;;;8.32;69.52
76990;BME280;65924;47.250;11.332;2023-04-08T02:01:48;94871.21;;;8.32;69.42
76990;BME280;65924;47.250;11.332;2023-04-08T02:02:28;94871.04;;;8.32;69.24
76990;BME280;65924;47.250;11.332;2023-04-08T02:03:11;94867.81;;;8.32;69.29
76990;BME280;65924;47.250;11.332;2023-04-08T02:03:50;94872.23;;;8.32;69.30
76990;BME280;65924;47.250;11.332;2023-04-08T02:04:35;94870.85;;;8.32;69.08
76990;BME280;65924;47.250;11.332;2023-04-08T02:05:14;94870.81;;;8.33;69.16
76990;BME280;65924;47.250;11.332;2023-04-08T02:05:53;94871.98;;;8.33;69.33
76990;BME280;65924;47.250;11.332;2023-04-08T02:06:32;94870.52;;;8.32;69.20
76990;BME280;65924;47.250;11.332;2023-04-08T02:07:11;94869.62;;;8.33;69.05
76990;BME280;65924;47.250;11.332;2023-04-08T02:07:49;94868.23;;;8.34;69.28
76990;BME280;65924;47.250;11.332;2023-04-08T02:08:29;94872.24;;;8.35;69.25
76990;BME280;65924;47.250;11.332;2023-04-08T02:09:07;94871.37;;;8.35;69.30
76990;BME280;65924;47.250;11.332;2023-04-08T02:09:47;94872.64;;;8.34;69.35
76990;BME280;65924;47.250;11.332;2023-04-08T02:10:26;94871.55;;;8.32;69.39
76990;BME280;65924;47.250;11.332;2023-04-08T02:11:04;94871.11;;;8.31;69.22
76990;BME280;65924;47.250;11.332;2023-04-08T02:11:43;94871.11;;;8.31;69.26
76990;BME280;65924;47.250;11.332;2023-04-08T02:12:22;94869.94;;;8.30;69.25
76990;BME280;65924;47.250;11.332;2023-04-08T02:13:01;94870.29;;;8.30;69.42
76990;BME280;65924;47.250;11.332;2023-04-08T02:13:42;94868.48;;;8.26;69.52
76990;BME280;65924;47.250;11.332;2023-04-08T02:14:20;94872.88;;;8.26;69.60
76990;BME280;65924;47.250;11.332;2023-04-08T02:15:00;94873.42;;;8.26;69.65
76990;BME280;65924;47.250;11.332;2023-04-08T02:15:42;94875.31;;;8.25;69.52
76990;BME280;65924;47.250;11.332;2023-04-08T02:16:34;94876.39;;;8.23;69.58
76990;BME280;65924;47.250;11.332;2023-04-08T02:18:12;94874.54;;;8.23;69.65
76990;BME280;65924;47.250;11.332;2023-04-08T02:18:59;94874.90;;;8.23;69.72
76990;BME280;65924;47.250;11.332;2023-04-08T02:19:55;94877.73;;;8.20;69.78
76990;BME280;65924;47.250;11.332;2023-04-08T02:20:38;94876.58;;;8.20;69.67
76990;BME280;65924;47.250;11.332;2023-04-08T02:21:21;94875.86;;;8.20;69.58
76990;BME280;65924;47.250;11.332;2023-04-08T02:22:11;94871.36;;;8.19;69.81
76990;BME280;65924;47.250;11.332;2023-04-08T02:23:11;94874.77;;;8.18;69.81
76990;BME280;65924;47.250;11.332;2023-04-08T02:23:52;94873.77;;;8.19;69.94
76990;BME280;65924;47.250;11.332;2023-04-08T02:24:34;94877.73;;;8.17;70.08
76990;BME280;65924;47.250;11.332;2023-04-08T02:25:15;94878.68;;;8.15;70.12
76990;BME280;65924;47.250;11.332;2023-04-08T02:25:55;94877.29;;;8.13;70.07
76990;BME280;65924;47.250;11.332;2023-04-08T02:26:38;94876.96;;;8.13;70.09
76990;BME280;65924;47.250;11.332;2023-04-08T02:27:18;94883.52;;;8.13;70.14
76990;BME280;65924;47.250;11.332;2023-04-08T02:27:59;94881.97;;;8.14;70.10
76990;BME280;65924;47.250;11.332;2023-04-08T02:28:39;94883.50;;;8.14;69.99
76990;BME280;65924;47.250;11.332;2023-04-08T02:29:19;94884.25;;;8.16;69.97
76990;BME280;65924;47.250;11.332;2023-04-08T02:30:00;94883.16;;;8.17;70.03
76990;BME280;65924;47.250;11.332;2023-04-08T02:30:42;94885.45;;;8.19;70.04
76990;BME280;65924;47.250;11.332;2023-04-08T02:31:22;94882.89;;;8.19;70.15
76990;BME280;65924;47.250;11.332;2023-04-08T02:32:03;94882.18;;;8.20;69.97
76990;BME280;65924;47.250;11.332;2023-04-08T02:32:43;94875.73;;;8.17;70.01
76990;BME280;65924;47.250;11.332;2023-04-08T02:33:23;94885.15;;;8.21;69.96
76990;BME280;65924;47.250;11.332;2023-04-08T02:34:05;94885.29;;;8.21;70.11
76990;BME280;65924;47.250;11.332;2023-04-08T02:34:46;94884.14;;;8.21;70.19
76990;BME280;65924;47.250;11.332;2023-04-08T02:35:26;94883.67;;;8.20;70.32
76990;BME280;65924;47.250;11.332;2023-04-08T02:36:06;94885.84;;;8.21;70.33
76990;BME280;65924;47.250;11.332;2023-04-08T02:36:45;94882.08;;;8.21;70.34
76990;BME280;65924;47.250;11.332;2023-04-08T02:37:27;94887.98;;;8.22;70.52
76990;BME280;65924;47.250;11.332;2023-04-08T02:38:05;94883.16;;;8.20;70.45
76990;BME280;65924;47.250;11.332;2023-04-08T02:38:50;94887.95;;;8.19;70.61
76990;BME280;65924;47.250;11.332;2023-04-08T02:39:31;94885.52;;;8.17;70.57
76990;BME280;65924;47.250;11.332;2023-04-08T02:41:02;94887.02;;;8.15;70.72
76990;BME280;65924;47.250;11.332;2023-04-08T02:41:40;94884.58;;;8.13;70.72
76990;BME280;65924;47.250;11.332;2023-04-08T02:42:19;94885.14;;;8.12;70.93
76990;BME280;65924;47.250;11.332;2023-04-08T02:42:58;94885.70;;;8.11;71.02
76990;BME280;65924;47.250;11.332;2023-04-08T02:43:37;94886.66;;;8.12;70.92
76990;BME280;65924;47.250;11.332;2023-04-08T02:44:17;94885.28;;;8.12;70.78
76990;BME280;65924;47.250;11.332;2023-04-08T02:44:56;94887.30;;;8.13;70.86
76990;BME280;65924;47.250;11.332;2023-04-08T02:45:39;94887.73;;;8.14;70.83
76990;BME280;65924;47.250;11.332;2023-04-08T02:46:18;94887.65;;;8.15;70.73
76990;BME280;65924;47.250;11.332;2023-04-08T02:46:57;94886.89;;;8.17;70.83
76990;BME280;65924;47.250;11.332;2023-04-08T02:47:35;94887.18;;;8.18;70.94
76990;BME280;65924;47.250;11.332;2023-04-08T02:48:14;94889.73;;;8.18;70.87
76990;BME280;65924;47.250;11.332;2023-04-08T02:48:52;94887.64;;;8.19;70.89
76990;BME280;65924;47.250;11.332;2023-04-08T02:49:31;94890.70;;;8.18;70.88
76990;BME280;65924;47.250;11.332;2023-04-08T02:50:09;94887.85;;;8.18;70.92
76990;BME280;65924;47.250;11.332;2023-04-08T02:50:48;94890.77;;;8.17;71.01
76990;BME280;65924;47.250;11.332;2023-04-08T02:51:26;94890.64;;;8.16;71.18
76990;BME280;65924;47.250;11.332;2023-04-08T02:52:05;94888.66;;;8.16;71.22
76990;BME280;65924;47.250;11.332;2023-04-08T02:52:43;94887.96;;;8.16;71.42
76990;BME280;65924;47.250;11.332;2023-04-08T02:53:22;94887.65;;;8.15;71.30
76990;BME280;65924;47.250;11.332;2023-04-08T02:54:01;94888.48;;;8.16;71.28
76990;BME280;65924;47.250;11.332;2023-04-08T02:54:40;94890.45;;;8.17;71.33
76990;BME280;65924;47.250;11.332;2023-04-08T02:55:18;94892.09;;;8.18;71.47
76990;BME280;65924;47.250;11.332;2023-04-08T02:55:57;94891.36;;;8.19;71.38
76990;BME280;65924;47.250;11.332;2023-04-08T02:56:36;94894.52;;;8.20;71.43
76990;BME280;65924;47.250;11.332;2023-04-08T02:57:14;94893.63;;;8.21;71.29
76990;BME280;65924;47.250;11.332;2023-04-08T02:57:54;94895.95;;;8.22;71.41
76990;BME280;65924;47.250;11.332;2023-04-08T02:58:32;94895.65;;;8.21;71.37
76990;BME280;65924;47.250;11.332;2023-04-08T02:59:11;94894.73;;;8.22;71.36
76990;BME280;65924;47.250;11.332;2023-04-08T02:59:49;94892.16;;;8.23;71.30
76990;BME280;65924;47.250;11.332;2023-04-08T03:00:28;94894.30;;;8.24;71.35
76990;BME280;65924;47.250;11.332;2023-04-08T03:01:07;94894.79;;;8.25;71.42
76990;BME280;65924;47.250;11.332;2023-04-08T03:01:46;94897.80;;;8.26;71.44
76990;BME280;65924;47.250;11.332;2023-04-08T03:02:24;94893.05;;;8.26;71.36
76990;BME280;65924;47.250;11.332;2023-04-08T03:03:03;94894.23;;;8.26;71.35
76990;BME280;65924;47.250;11.332;2023-04-08T03:03:41;94893.88;;;8.26;71.32
76990;BME280;65924;47.250;11.332;2023-04-08T03:04:19;94891.37;;;8.26;71.39
76990;BME280;65924;47.250;11.332;2023-04-08T03:04:59;94892.02;;;8.26;71.19
76990;BME280;65924;47.250;11.332;2023-04-08T03:05:37;94894.02;;;8.26;71.19
76990;BME280;65924;47.250;11.332;2023-04-08T03:06:16;94892.45;;;8.28;71.27
76990;BME280;65924;47.250;11.332;2023-04-08T03:06:54;94893.42;;;8.29;71.32
76990;BME280;65924;47.250;11.332;2023-04-08T03:07:33;94893.73;;;8.29;71.27
76990;BME280;65924;47.250;11.332;2023-04-08T03:08:12;94890.86;;;8.29;71.21
76990;BME280;65924;47.250;11.332;2023-04-08T03:08:50;94893.58;;;8.29;71.41
76990;BME280;65924;47.250;11.332;2023-04-08T03:09:29;94893.23;;;8.29;71.35
76990;BME280;65924;47.250;11.332;2023-04-08T03:10:08;94891.23;;;8.28;71.48
76990;BME280;65924;47.250;11.332;2023-04-08T03:10:47;94893.23;;;8.29;71.58
76990;BME280;65924;47.250;11.332;2023-04-08T03:11:26;94896.80;;;8.28;71.64
76990;BME280;65924;47.250;11.332;2023-04-08T03:12:05;94893.77;;;8.28;71.54
76990;BME280;65924;47.250;11.332;2023-04-08T03:12:43;94896.79;;;8.29;71.58
76990;BME280;65924;47.250;11.332;2023-04-08T03:13:22;94895.27;;;8.29;71.68
76990;BME280;65924;47.250;11.332;2023-04-08T03:14:00;94895.45;;;8.29;71.88
76990;BME280;65924;47.250;11.332;2023-04-08T03:14:39;94894.70;;;8.30;71.70
76990;BME280;65924;47.250;11.332;2023-04-08T03:15:17;94893.65;;;8.30;71.87
76990;BME280;65924;47.250;11.332;2023-04-08T03:15:56;94891.27;;;8.30;71.77
76990;BME280;65924;47.250;11.332;2023-04-08T03:16:35;94890.40;;;8.31;71.76
76990;BME280;65924;47.250;11.332;2023-04-08T03:17:13;94891.34;;;8.32;71.81
76990;BME280;65924;47.250;11.332;2023-04-08T03:17:52;94889.79;;;8.33;72.07
76990;BME280;65924;47.250;11.332;2023-04-08T03:18:30;94889.85;;;8.32;71.89
76990;BME280;65924;47.250;11.332;2023-04-08T03:19:09;94892.56;;;8.32;71.89
76990;BME280;65924;47.250;11.332;2023-04-08T03:19:47;94892.54;;;8.32;71.81
76990;BME280;65924;47.250;11.332;2023-04-08T03:20:26;94890.17;;;8.32;71.85
76990;BME280;65924;47.250;11.332;2023-04-08T03:21:04;94891.88;;;8.32;71.82
76990;BME280;65924;47.250;11.332;2023-04-08T03:21:43;94893.05;;;8.32;72.13
76990;BME280;65924;47.250;11.332;2023-04-08T03:22:21;94892.07;;;8.31;71.85
76990;BME280;65924;47.250;11.332;2023-04-08T03:23:01;94895.80;;;8.31;71.86
76990;BME280;65924;47.250;11.332;2023-04-08T03:23:40;94891.11;;;8.31;71.78
76990;BME280;65924;47.250;11.332;2023-04-08T03:24:18;94893.15;;;8.30;71.83
76990;BME280;65924;47.250;11.332;2023-04-08T03:24:57;94892.65;;;8.30;71.88
76990;BME280;65924;47.250;11.332;2023-04-08T03:25:35;94893.81;;;8.30;72.06
76990;BME280;65924;47.250;11.332;2023-04-08T03:26:13;94895.83;;;8.31;72.08
76990;BME280;65924;47.250;11.332;2023-04-08T03:26:52;94896.16;;;8.31;71.96
76990;BME280;65924;47.250;11.332;2023-04-08T03:27:31;94895.17;;;8.31;72.13
76990;BME280;65924;47.250;11.332;2023-04-08T03:28:09;94893.51;;;8.30;71.91
76990;BME280;65924;47.250;11.332;2023-04-08T03:28:48;94892.84;;;8.30;71.96
76990;BME280;65924;47.250;11.332;2023-04-08T03:29:26;94893.85;;;8.30;71.91
76990;BME280;65924;47.250;11.332;2023-04-08T03:30:05;94890.98;;;8.30;71.93
76990;BME280;65924;47.250;11.332;2023-04-08T03:30:44;94890.64;;;8.30;72.14
76990;BME280;65924;47.250;11.332;2023-04-08T03:31:23;94886.67;;;8.28;72.00
76990;BME280;65924;47.250;11.332;2023-04-08T03:32:01;94883.73;;;8.26;72.07
76990;BME280;65924;47.250;11.332;2023-04-08T03:32:40;94885.74;;;8.26;72.02
76990;BME280;65924;47.250;11.332;2023-04-08T03:33:18;94882.06;;;8.26;71.79
76990;BME280;65924;47.250;11.332;2023-04-08T03:33:57;94886.63;;;8.26;71.80
76990;BME280;65924;47.250;11.332;2023-04-08T03:34:35;94886.29;;;8.25;71.96
76990;BME280;65924;47.250;11.332;2023-04-08T03:35:14;94887.40;;;8.24;71.83
76990;BME280;65924;47.250;11.332;2023-04-08T03:35:53;94888.98;;;8.22;72.06
76990;BME280;65924;47.250;11.332;2023-04-08T03:36:32;94896.16;;;8.21;72.09
76990;BME280;65924;47.250;11.332;2023-04-08T03:37:10;94895.55;;;8.20;72.10